Time;durP1;ratioP1;P1;durP2;ratioP2;P2;SDS_P1;SDS_P2;PMS_P1;PMS_P2;Temp;Humidity;BMP_temperature;BMP_pressure;BME280_temperature;BME280_humidity;BME280_pressure;Samples;Min_cycle;Max_cycle;Signal;HPM_P1;HPM_P2
2022/06/20 00:01:46;;;;;;;4.47;0.63;;;12.90;99.90;;;;;;5075671;28;20503;-74
2022/06/20 00:04:18;;;;;;;2.50;0.05;;;12.90;99.90;;;;;;5093754;28;20030;-74
2022/06/20 00:06:43;;;;;;;1.00;0.05;;;12.90;99.90;;;;;;5094061;28;20073;-74
2022/06/20 00:09:11;;;;;;;2.63;0.63;;;12.90;99.90;;;;;;5094362;28;20024;-74
2022/06/20 00:11:41;;;;;;;1.40;0.10;;;13.00;99.90;;;;;;5096808;28;20052;-74
2022/06/20 00:14:12;;;;;;;2.35;0.00;;;12.90;99.90;;;;;;5097525;28;20185;-73
2022/06/20 00:16:37;;;;;;;1.58;0.00;;;12.90;99.90;;;;;;5097554;28;20157;-74
2022/06/20 00:19:03;;;;;;;2.90;0.00;;;12.90;99.90;;;;;;5079310;28;20020;-74
2022/06/20 00:21:29;;;;;;;9.05;0.35;;;12.90;99.90;;;;;;5079226;28;20020;-73
2022/06/20 00:23:54;;;;;;;3.58;0.22;;;12.80;99.90;;;;;;5097435;28;20065;-74
2022/06/20 00:26:20;;;;;;;6.90;0.47;;;12.80;99.90;;;;;;5097255;28;20384;-73
2022/06/20 00:28:45;;;;;;;10.63;0.90;;;12.80;99.90;;;;;;5097173;28;20338;-74
2022/06/20 00:31:12;;;;;;;1.95;0.00;;;12.70;99.90;;;;;;5097052;28;20047;-74
2022/06/20 00:33:37;;;;;;;1.63;0.00;;;12.60;99.90;;;;;;5078956;28;20113;-74
2022/06/20 00:36:03;;;;;;;1.98;0.00;;;12.60;99.90;;;;;;5078941;28;20111;-74
2022/06/20 00:38:29;;;;;;;4.05;0.00;;;12.50;99.90;;;;;;5097384;28;20099;-74
2022/06/20 00:41:04;;;;;;;1.50;0.38;;;12.50;99.90;;;;;;5078067;28;20035;-74
2022/06/20 00:43:37;;;;;;;1.85;0.20;;;12.40;99.90;;;;;;5097114;28;20031;-74
2022/06/20 00:46:07;;;;;;;7.03;0.45;;;12.40;99.90;;;;;;5096809;28;20016;-74
2022/06/20 00:48:46;;;;;;;3.03;0.15;;;12.40;99.90;;;;;;5079655;28;20031;-74
2022/06/20 00:51:26;;;;;;;1.95;0.00;;;12.30;99.90;;;;;;5078710;28;20401;-73
2022/06/20 00:53:59;;;;;;;2.22;0.10;;;12.30;99.90;;;;;;5096574;28;20480;-74
2022/06/20 00:56:38;;;;;;;3.03;0.00;;;12.30;99.90;;;;;;5078239;28;20047;-73
2022/06/20 00:59:11;;;;;;;1.45;0.22;;;12.20;99.90;;;;;;5096684;28;20028;-74
2022/06/20 01:01:41;;;;;;;3.30;0.00;;;12.20;99.90;;;;;;5078608;28;20028;-74
2022/06/20 01:04:40;;;;;;;3.42;0.28;;;12.20;99.90;;;;;;5078602;28;20024;-73
2022/06/20 01:07:07;;;;;;;;;;;12.20;99.90;;;;;;5096023;28;20058;-73
2022/06/20 01:09:37;;;;;;;5.43;0.43;;;12.10;99.90;;;;;;5078723;28;19904;-73
2022/06/20 01:12:03;;;;;;;4.47;0.17;;;12.10;99.90;;;;;;5096707;28;20042;-73
2022/06/20 01:14:34;;;;;;;2.30;0.00;;;12.20;99.90;;;;;;5096238;28;20099;-73
2022/06/20 01:17:12;;;;;;;6.65;0.15;;;12.20;99.90;;;;;;5096544;28;20028;-73
2022/06/20 01:20:05;;;;;;;7.35;0.85;;;12.20;99.90;;;;;;5078115;28;20078;-74
2022/06/20 01:22:43;;;;;;;2.58;0.10;;;12.20;99.90;;;;;;5077966;28;20472;-74
2022/06/20 01:25:24;;;;;;;4.20;0.20;;;12.30;99.90;;;;;;5096039;28;20024;-74
2022/06/20 01:27:51;;;;;;;3.42;0.05;;;12.30;99.90;;;;;;5077451;28;20365;-74
2022/06/20 01:30:19;;;;;;;3.25;0.10;;;12.40;99.90;;;;;;5077533;28;20069;-74
2022/06/20 01:32:45;;;;;;;3.40;0.00;;;12.50;99.90;;;;;;5096016;28;20123;-74
2022/06/20 01:37:23;;;;;;;4.47;0.30;;;12.50;99.90;;;;;;5095258;28;20077;-74
2022/06/20 01:38:02;;;;;;;2.22;0.05;;;12.60;99.90;;;;;;5095160;28;20063;-74
2022/06/20 01:40:28;;;;;;;3.30;0.10;;;12.60;99.90;;;;;;5077180;28;20077;-74
2022/06/20 01:42:54;;;;;;;4.22;0.30;;;12.60;99.90;;;;;;5095418;28;20027;-74
2022/06/20 01:48:15;;;;;;;3.88;0.20;;;12.70;99.90;;;;;;5095499;28;20035;-74
2022/06/20 01:50:44;;;;;;;8.45;0.65;;;12.80;99.90;;;;;;5095282;28;20024;-74
2022/06/20 01:53:11;;;;;;;;;;;12.80;99.90;;;;;;5077303;28;20114;-74
2022/06/20 01:55:37;;;;;;;6.78;0.17;;;12.90;99.90;;;;;;5093856;28;19908;-74
2022/06/20 01:58:18;;;;;;;1.98;0.30;;;12.90;99.90;;;;;;5095017;28;20071;-74
2022/06/20 02:00:44;;;;;;;7.03;0.10;;;12.90;99.90;;;;;;5095147;28;20028;-74
2022/06/20 02:03:19;;;;;;;0.90;0.00;;;13.00;99.90;;;;;;5076727;28;20537;-74
2022/06/20 02:05:53;;;;;;;2.13;0.10;;;13.00;99.90;;;;;;5076754;28;20552;-75
2022/06/20 02:08:20;;;;;;;1.73;0.00;;;13.40;99.90;;;;;;5095048;28;20024;-74
2022/06/20 02:10:58;;;;;;;2.70;0.10;;;13.10;99.90;;;;;;5077121;28;20489;-74
2022/06/20 02:13:27;;;;;;;4.32;0.70;;;13.10;99.90;;;;;;5095921;28;20154;-74
2022/06/20 02:15:58;;;;;;;2.50;0.08;;;13.10;99.90;;;;;;5095042;28;20368;-74
2022/06/20 02:18:30;;;;;;;2.85;0.43;;;13.10;99.90;;;;;;5095278;28;20350;-74
2022/06/20 02:21:00;;;;;;;1.55;0.20;;;13.20;99.90;;;;;;5094819;28;20032;-74
2022/06/20 02:23:30;;;;;;;3.85;0.10;;;13.10;99.90;;;;;;5094876;28;20055;-74
2022/06/20 02:25:57;;;;;;;1.85;0.00;;;13.20;99.90;;;;;;5094997;28;20115;-74
2022/06/20 02:28:38;;;;;;;2.08;0.20;;;13.20;99.90;;;;;;5076650;28;20028;-74
2022/06/20 02:31:07;;;;;;;6.22;0.10;;;13.20;99.90;;;;;;5095395;28;20023;-74
2022/06/20 02:33:33;;;;;;;2.22;0.00;;;13.10;99.90;;;;;;5093995;28;20127;-74
2022/06/20 02:36:00;;;;;;;2.20;0.00;;;13.10;99.90;;;;;;5094728;28;20046;-74
2022/06/20 02:38:27;;;;;;;2.95;0.55;;;13.10;99.90;;;;;;5095055;28;20029;-74
2022/06/20 02:40:55;;;;;;;4.25;0.30;;;13.00;99.90;;;;;;5076098;28;20106;-74
2022/06/20 02:43:31;;;;;;;2.45;0.00;;;13.00;99.90;;;;;;5094583;28;20608;-74
2022/06/20 02:45:58;;;;;;;5.38;0.10;;;12.90;99.90;;;;;;5094162;28;20481;-74
2022/06/20 02:48:27;;;;;;;5.32;0.20;;;12.90;99.90;;;;;;5076037;28;20016;-74
2022/06/20 02:50:59;;;;;;;3.08;0.00;;;12.90;99.90;;;;;;5094803;28;20032;-74
2022/06/20 02:53:30;;;;;;;3.47;0.10;;;12.80;99.90;;;;;;5076319;28;20026;-74
2022/06/20 02:55:56;;;;;;;4.68;0.38;;;12.90;99.90;;;;;;5075959;28;20134;-73
2022/06/20 02:58:28;;;;;;;4.30;0.10;;;12.80;99.90;;;;;;5076186;28;20027;-74
2022/06/20 03:01:15;;;;;;;4.13;0.05;;;12.80;99.90;;;;;;5094307;28;20428;-73
2022/06/20 03:03:48;;;;;;;21.90;0.32;;;12.90;99.90;;;;;;5094150;28;20024;-73
2022/06/20 03:06:40;;;;;;;2.85;0.00;;;12.80;99.90;;;;;;5094485;28;20519;-73
2022/06/20 03:09:06;;;;;;;2.53;0.00;;;12.80;99.90;;;;;;5094223;28;20024;-73
2022/06/20 03:11:35;;;;;;;3.58;0.45;;;12.80;99.90;;;;;;5094216;28;20024;-73
2022/06/20 03:14:04;;;;;;;2.67;0.05;;;12.80;99.90;;;;;;5076267;28;20384;-73
2022/06/20 03:16:32;;;;;;;3.97;0.25;;;12.70;99.90;;;;;;5094366;28;20043;-73
2022/06/20 03:19:00;;;;;;;2.08;0.00;;;12.70;99.90;;;;;;5094671;28;20032;-74
2022/06/20 03:21:31;;;;;;;6.03;0.40;;;12.60;99.90;;;;;;5094233;28;20542;-74
2022/06/20 03:23:56;;;;;;;3.05;0.00;;;12.50;99.90;;;;;;5094648;28;20016;-74
2022/06/20 03:26:25;;;;;;;2.15;0.10;;;12.50;99.90;;;;;;5075916;28;20046;-73
2022/06/20 03:28:53;;;;;;;1.33;0.00;;;12.40;99.90;;;;;;5076088;28;20110;-74
2022/06/20 03:31:19;;;;;;;1.73;0.00;;;12.40;99.90;;;;;;5093906;28;20020;-73
2022/06/20 03:33:46;;;;;;;5.47;0.63;;;12.60;99.90;;;;;;5093876;28;20024;-73
2022/06/20 03:36:25;;;;;;;5.13;0.45;;;12.30;99.90;;;;;;5094155;28;20020;-74
2022/06/20 03:38:51;;;;;;;3.70;0.20;;;12.20;99.90;;;;;;5094354;28;20473;-74
2022/06/20 03:41:23;;;;;;;3.92;0.20;;;12.10;99.90;;;;;;5075687;28;20450;-74
2022/06/20 03:43:57;;;;;;;2.85;0.00;;;12.10;99.90;;;;;;5094066;28;20024;-74
2022/06/20 03:46:27;;;;;;;1.05;0.00;;;12.10;99.90;;;;;;5097926;28;20023;-74
2022/06/20 03:49:08;;;;;;;2.25;0.22;;;12.00;99.90;;;;;;5098591;28;20081;-74
2022/06/20 03:51:47;;;;;;;1.38;0.10;;;12.10;99.90;;;;;;5079891;28;20084;-74
2022/06/20 03:54:31;;;;;;;2.85;0.00;;;12.00;99.90;;;;;;5079833;28;20046;-74
2022/06/20 03:57:11;;;;;;;3.00;0.00;;;12.00;99.90;;;;;;5097487;28;20024;-75
2022/06/20 03:59:43;;;;;;;2.78;0.55;;;12.00;99.90;;;;;;5079626;28;20028;-75
2022/06/20 04:02:22;;;;;;;2.90;0.00;;;12.10;99.90;;;;;;5097775;28;20028;-75
2022/06/20 04:04:51;;;;;;;4.85;1.02;;;12.10;99.90;;;;;;5097686;28;20160;-74
2022/06/20 04:07:43;;;;;;;1.65;0.00;;;12.20;99.90;;;;;;5097701;28;20102;-74
2022/06/20 04:13:08;;;;;;;3.58;0.17;;;12.30;99.90;;;;;;5098554;28;20035;-74
2022/06/20 04:15:43;;;;;;;3.90;0.20;;;12.40;99.90;;;;;;5079406;28;20028;-74
2022/06/20 04:18:41;;;;;;;2.47;0.10;;;12.50;99.90;;;;;;5097907;28;20075;-75
2022/06/20 04:21:19;;;;;;;2.25;0.10;;;12.60;99.90;;;;;;5096974;28;20040;-74
2022/06/20 04:24:10;;;;;;;6.63;0.00;;;12.60;99.90;;;;;;5079746;28;20024;-73
2022/06/20 04:26:43;;;;;;;3.08;0.52;;;12.60;99.90;;;;;;5097156;28;20039;-74
2022/06/20 04:29:23;;;;;;;2.55;0.50;;;12.60;99.90;;;;;;5097614;28;20500;-74
2022/06/20 04:31:55;;;;;;;2.70;0.55;;;12.70;99.90;;;;;;5079348;28;20066;-74
2022/06/20 04:34:44;;;;;;;1.30;0.10;;;12.70;99.90;;;;;;5079164;28;20028;-74
2022/06/20 04:37:35;;;;;;;1.95;0.00;;;12.70;99.90;;;;;;5097080;28;20025;-74
2022/06/20 04:40:05;;;;;;;4.28;0.00;;;12.80;99.90;;;;;;5096968;28;20026;-74
2022/06/20 04:42:51;;;;;;;1.20;0.00;;;12.80;99.90;;;;;;5097698;28;20028;-74
2022/06/20 04:45:39;;;;;;;4.82;0.00;;;12.90;99.90;;;;;;5097482;28;20024;-74
2022/06/20 04:48:14;;;;;;;2.45;0.22;;;12.90;99.90;;;;;;5097590;28;20111;-74
2022/06/20 04:50:47;;;;;;;1.25;0.10;;;13.00;99.90;;;;;;5096708;28;20173;-74
2022/06/20 04:53:16;;;;;;;3.83;0.40;;;13.10;99.90;;;;;;5096362;28;20020;-74
2022/06/20 04:55:46;;;;;;;3.47;0.15;;;13.20;99.90;;;;;;5095966;28;20024;-74
2022/06/20 04:58:16;;;;;;;2.30;0.05;;;13.20;99.90;;;;;;5096463;28;20035;-73
2022/06/20 05:00:45;;;;;;;4.60;0.00;;;13.40;99.90;;;;;;5096444;28;20049;-74
2022/06/20 05:03:20;;;;;;;0.82;0.00;;;13.40;99.90;;;;;;5096571;28;20024;-74
2022/06/20 05:05:49;;;;;;;4.18;0.60;;;13.40;99.90;;;;;;5096873;28;20069;-73
2022/06/20 05:08:16;;;;;;;;;;;13.50;99.90;;;;;;5096447;28;20016;-74
2022/06/20 05:11:17;;;;;;;7.43;0.85;;;13.50;99.90;;;;;;5095971;28;19917;-73
2022/06/20 05:13:50;;;;;;;8.25;0.10;;;13.60;99.90;;;;;;5058685;28;20042;-73
2022/06/20 05:16:22;;;;;;;4.32;0.10;;;13.70;99.90;;;;;;5078229;28;20423;-74
2022/06/20 05:18:57;;;;;;;3.33;0.22;;;13.80;99.90;;;;;;5096543;28;20054;-75
2022/06/20 05:21:39;;;;;;;2.78;0.75;;;14.00;99.90;;;;;;5096022;28;20034;-75
2022/06/20 05:24:12;;;;;;;6.85;1.13;;;14.10;99.90;;;;;;5078026;28;20058;-75
2022/06/20 05:26:42;;;;;;;3.45;0.30;;;14.20;99.90;;;;;;5096064;28;20028;-74
2022/06/20 05:29:16;;;;;;;2.75;0.40;;;14.20;99.90;;;;;;5096112;28;20016;-74
2022/06/20 05:31:45;;;;;;;8.48;0.68;;;14.30;99.90;;;;;;5096477;28;20050;-75
2022/06/20 05:34:15;;;;;;;6.10;0.52;;;14.40;99.90;;;;;;5096004;28;20542;-75
2022/06/20 05:36:43;;;;;;;2.47;0.32;;;14.60;99.90;;;;;;5095793;28;20028;-74
2022/06/20 05:39:16;;;;;;;3.85;0.80;;;14.70;99.90;;;;;;5095828;28;20028;-75
2022/06/20 05:41:42;;;;;;;3.38;0.15;;;14.80;99.90;;;;;;5095677;28;20066;-74
2022/06/20 05:44:12;;;;;;;5.30;0.43;;;14.80;99.90;;;;;;5095871;28;20068;-74
2022/06/20 05:46:55;;;;;;;4.97;0.10;;;14.80;99.90;;;;;;5077709;28;20012;-76
2022/06/20 05:49:33;;;;;;;4.65;0.30;;;14.80;99.90;;;;;;5095520;28;20477;-75
2022/06/20 05:51:59;;;;;;;8.13;1.02;;;14.70;99.90;;;;;;5095812;28;20046;-74
2022/06/20 05:54:39;;;;;;;6.93;0.50;;;14.70;99.90;;;;;;5095884;28;20031;-74
2022/06/20 05:57:12;;;;;;;3.75;0.20;;;14.80;99.90;;;;;;5095848;28;20020;-74
2022/06/20 05:59:49;;;;;;;3.60;0.22;;;14.80;99.90;;;;;;5085772;22;20456;-75
2022/06/20 06:02:14;;;;;;;2.85;0.45;;;14.90;99.90;;;;;;5093959;28;20504;-75
2022/06/20 06:04:53;;;;;;;0.88;0.10;;;14.90;99.90;;;;;;5076656;28;20054;-75
2022/06/20 06:07:27;;;;;;;5.13;0.35;;;15.10;99.90;;;;;;5094987;28;20099;-75
2022/06/20 06:09:59;;;;;;;5.35;0.20;;;15.10;99.90;;;;;;5094997;28;20028;-75
2022/06/20 06:12:50;;;;;;;4.75;0.30;;;15.30;99.90;;;;;;5094823;28;20085;-74
2022/06/20 06:15:31;;;;;;;3.33;0.98;;;15.50;99.90;;;;;;5076685;28;20443;-76
2022/06/20 06:18:02;;;;;;;8.43;0.60;;;15.70;99.90;;;;;;5094926;28;20024;-74
2022/06/20 06:20:31;;;;;;;10.18;0.80;;;15.90;99.90;;;;;;5094612;28;20542;-73
2022/06/20 06:23:10;;;;;;;5.13;0.85;;;16.10;99.90;;;;;;5076199;28;20020;-74
2022/06/20 06:25:39;;;;;;;3.53;0.22;;;16.10;99.90;;;;;;5076408;28;20026;-74
2022/06/20 06:28:20;;;;;;;3.45;0.30;;;16.20;99.90;;;;;;5076640;28;20473;-74
2022/06/20 06:30:59;;;;;;;5.28;0.30;;;16.20;99.90;;;;;;5094887;28;20027;-74
2022/06/20 06:33:39;;;;;;;4.90;0.10;;;16.20;99.90;;;;;;5094588;28;20362;-74
2022/06/20 06:36:09;;;;;;;5.15;0.25;;;16.30;99.90;;;;;;5094588;28;20020;-73
2022/06/20 06:38:43;;;;;;;7.50;1.25;;;16.50;99.90;;;;;;5076357;28;20500;-73
2022/06/20 06:41:43;;;;;;;4.65;0.17;;;16.70;99.90;;;;;;5094672;28;20027;-74
2022/06/20 06:44:35;;;;;;;4.05;0.47;;;16.80;99.90;;;;;;5090154;28;20036;-73
2022/06/20 06:47:00;;;;;;;8.20;0.50;;;16.80;99.90;;;;;;5076049;28;20040;-73
2022/06/20 06:49:35;;;;;;;5.97;0.73;;;17.00;99.90;;;;;;5094212;28;20066;-73
2022/06/20 06:52:21;;;;;;;2.85;0.10;;;17.00;99.90;;;;;;5076149;28;20451;-73
2022/06/20 06:55:03;;;;;;;2.75;0.50;;;17.20;99.90;;;;;;5094945;28;20030;-73
2022/06/20 06:57:44;;;;;;;4.82;0.38;;;17.20;99.90;;;;;;5076146;28;20047;-74
2022/06/20 07:00:18;;;;;;;2.47;0.13;;;17.10;99.90;;;;;;5094044;28;20427;-73
2022/06/20 07:02:52;;;;;;;4.35;0.52;;;17.00;99.90;;;;;;5094025;28;20016;-74
2022/06/20 07:05:40;;;;;;;4.07;0.30;;;17.00;99.90;;;;;;5094011;28;20096;-74
2022/06/20 07:08:11;;;;;;;8.03;0.47;;;16.90;99.90;;;;;;5093740;28;20024;-73
2022/06/20 07:10:47;;;;;;;3.88;0.25;;;16.70;99.90;;;;;;5075510;28;20032;-73
2022/06/20 07:13:22;;;;;;;2.53;0.22;;;16.50;99.90;;;;;;5093759;28;20035;-74
2022/06/20 07:15:53;;;;;;;4.90;0.63;;;16.30;99.90;;;;;;5094140;28;20043;-74
2022/06/20 07:18:51;;;;;;;3.70;0.60;;;16.10;99.90;;;;;;5075619;28;20054;-73
2022/06/20 07:21:21;;;;;;;4.35;0.17;;;16.00;99.90;;;;;;5093662;28;20024;-74
2022/06/20 07:23:50;;;;;;;2.45;0.40;;;16.00;99.90;;;;;;5093501;28;20020;-74
2022/06/20 07:26:19;;;;;;;5.75;1.15;;;16.10;99.90;;;;;;5094101;28;20020;-74
2022/06/20 07:28:53;;;;;;;1.83;0.22;;;16.20;99.90;;;;;;5075356;28;20012;-75
2022/06/20 07:31:28;;;;;;;3.67;0.40;;;16.40;99.90;;;;;;5075612;28;20020;-74
2022/06/20 07:34:16;;;;;;;9.55;0.77;;;16.70;99.90;;;;;;5093447;28;20050;-74
2022/06/20 07:36:47;;;;;;;8.80;0.50;;;17.20;99.90;;;;;;5094094;28;20020;-75
2022/06/20 07:39:43;;;;;;;3.58;0.38;;;17.70;99.90;;;;;;5075550;28;20024;-74
2022/06/20 07:42:25;;;;;;;2.65;0.10;;;18.10;99.90;;;;;;5075555;28;20045;-74
2022/06/20 07:44:57;;;;;;;4.38;0.52;;;18.40;99.90;;;;;;5075440;28;20107;-74
2022/06/20 07:47:27;;;;;;;3.13;0.17;;;18.40;99.90;;;;;;5093728;28;20032;-74
2022/06/20 07:49:57;;;;;;;1.67;0.10;;;18.50;99.90;;;;;;5093707;28;20024;-75
2022/06/20 07:52:34;;;;;;;5.78;0.52;;;18.20;99.90;;;;;;5093413;28;20506;-75
2022/06/20 07:55:05;;;;;;;3.47;0.43;;;18.10;99.90;;;;;;5075585;28;20089;-75
2022/06/20 07:57:35;;;;;;;4.57;0.55;;;18.20;99.90;;;;;;5093539;28;20375;-73
2022/06/20 08:00:07;;;;;;;1.35;0.28;;;18.40;99.90;;;;;;5093104;28;20030;-74
2022/06/20 08:02:34;;;;;;;2.13;0.35;;;18.60;99.90;;;;;;5093522;28;20058;-74
2022/06/20 08:05:02;;;;;;;9.55;0.65;;;18.70;99.90;;;;;;5093315;28;20024;-74
2022/06/20 08:07:34;;;;;;;3.37;0.33;;;18.90;99.90;;;;;;5093514;28;20393;-75
2022/06/20 08:10:09;;;;;;;4.18;0.25;;;18.80;97.90;;;;;;5075580;28;20269;-74
2022/06/20 08:12:45;;;;;;;2.03;0.10;;;18.80;99.90;;;;;;5075209;28;20024;-74
2022/06/20 08:15:17;;;;;;;3.75;0.05;;;18.50;97.70;;;;;;5075246;28;20081;-73
2022/06/20 08:17:43;;;;;;;1.88;0.10;;;18.40;99.00;;;;;;5093525;28;20534;-74
2022/06/20 08:20:10;;;;;;;4.68;0.10;;;18.50;99.90;;;;;;5074956;28;20020;-74
2022/06/20 08:22:58;;;;;;;5.07;0.40;;;18.70;99.90;;;;;;5093411;28;20020;-74
2022/06/20 08:25:36;;;;;;;6.22;0.10;;;18.80;95.60;;;;;;5075180;28;20098;-75
2022/06/20 08:28:11;;;;;;;4.82;0.32;;;18.90;98.10;;;;;;5074986;28;20021;-74
2022/06/20 08:30:41;;;;;;;4.28;0.38;;;19.20;98.10;;;;;;5093462;28;20413;-74
2022/06/20 08:33:32;;;;;;;5.60;0.45;;;19.50;94.60;;;;;;5097367;28;20099;-74
2022/06/20 08:36:23;;;;;;;2.53;0.57;;;19.50;94.00;;;;;;5078620;28;20519;-74
2022/06/20 08:39:05;;;;;;;4.95;0.22;;;19.50;93.70;;;;;;5097246;28;20064;-74
2022/06/20 08:41:59;;;;;;;3.33;0.10;;;19.50;93.30;;;;;;5079016;28;20024;-74
2022/06/20 08:44:48;;;;;;;3.50;0.45;;;19.80;96.10;;;;;;5097019;28;20020;-75
2022/06/20 08:47:16;;;;;;;3.20;0.30;;;19.90;92.40;;;;;;5096862;28;20161;-75
2022/06/20 08:50:11;;;;;;;1.92;0.15;;;20.00;94.70;;;;;;5078125;28;20020;-75
2022/06/20 08:52:55;;;;;;;6.10;0.75;;;19.80;92.80;;;;;;5096715;28;20024;-74
2022/06/20 08:55:41;;;;;;;2.70;0.32;;;19.70;93.90;;;;;;5078359;28;20024;-74
2022/06/20 08:58:19;;;;;;;2.70;0.73;;;20.00;91.80;;;;;;5096825;28;20097;-74
2022/06/20 09:00:55;;;;;;;5.35;0.55;;;20.00;92.40;;;;;;5096474;28;20036;-74
2022/06/20 09:03:49;;;;;;;2.42;0.00;;;20.00;90.70;;;;;;5096974;28;20020;-73
2022/06/20 09:06:25;;;;;;;4.10;0.10;;;19.90;92.20;;;;;;5078529;28;20016;-74
2022/06/20 09:09:22;;;;;;;3.72;0.38;;;19.80;90.70;;;;;;5096348;28;20024;-74
2022/06/20 09:11:59;;;;;;;3.47;0.40;;;19.80;93.20;;;;;;5096772;28;20020;-74
2022/06/20 09:14:35;;;;;;;3.47;0.10;;;19.80;93.50;;;;;;5096919;28;20458;-74
2022/06/20 09:17:38;;;;;;;0.90;0.00;;;19.90;94.40;;;;;;5096606;28;20485;-74
2022/06/20 09:20:23;;;;;;;4.10;0.73;;;20.20;92.40;;;;;;5096631;28;20078;-74
2022/06/20 09:23:08;;;;;;;0.88;0.00;;;20.20;84.40;;;;;;5095895;28;20032;-75
2022/06/20 09:25:39;;;;;;;2.38;0.00;;;20.20;85.10;;;;;;5095789;28;20397;-75
2022/06/20 09:28:32;;;;;;;1.00;0.00;;;20.10;88.90;;;;;;5096285;28;20059;-75
2022/06/20 09:31:20;;;;;;;0.73;0.05;;;20.20;88.40;;;;;;5095854;28;20104;-74
2022/06/20 09:33:51;;;;;;;2.17;0.35;;;20.50;86.50;;;;;;5078083;28;20100;-75
2022/06/20 09:36:25;;;;;;;2.25;0.05;;;20.60;79.90;;;;;;5095940;28;20028;-74
2022/06/20 09:39:00;;;;;;;0.90;0.20;;;20.50;80.50;;;;;;5096108;28;20451;-74
2022/06/20 09:41:36;;;;;;;0.85;0.00;;;20.60;75.50;;;;;;5095875;28;20038;-75
2022/06/20 09:44:04;;;;;;;1.45;0.00;;;20.80;75.00;;;;;;5077743;28;20063;-74
2022/06/20 09:47:00;;;;;;;2.42;0.00;;;21.10;74.10;;;;;;5095983;28;20027;-74
2022/06/20 09:49:43;;;;;;;1.75;0.00;;;21.40;71.00;;;;;;5096132;28;20488;-74
2022/06/20 09:52:27;;;;;;;4.07;0.10;;;21.70;70.60;;;;;;5095440;28;20024;-74
2022/06/20 09:55:04;;;;;;;0.63;0.00;;;22.00;73.90;;;;;;5095741;28;20115;-75
2022/06/20 09:57:42;;;;;;;0.80;0.00;;;22.30;75.30;;;;;;5077153;28;20464;-74
2022/06/20 10:00:53;;;;;;;0.93;0.00;;;22.10;73.90;;;;;;5095059;28;20032;-75
2022/06/20 10:03:40;;;;;;;3.83;0.30;;;21.90;75.70;;;;;;5070480;28;20040;-75
2022/06/20 10:06:46;;;;;;;1.50;0.00;;;22.10;78.10;;;;;;5096387;28;20048;-75
2022/06/20 10:09:40;;;;;;;4.97;0.45;;;22.50;75.80;;;;;;4996938;28;20036;-76
2022/06/20 10:12:18;;;;;;;2.53;0.00;;;22.80;74.10;;;;;;5095605;28;20044;-75
2022/06/20 10:15:10;;;;;;;1.70;0.08;;;22.20;73.80;;;;;;5077167;28;20028;-75
2022/06/20 10:18:09;;;;;;;4.85;0.20;;;21.80;75.50;;;;;;5095212;28;20024;-75
2022/06/20 10:21:00;;;;;;;3.97;0.52;;;21.80;78.80;;;;;;5077481;28;20023;-76
2022/06/20 10:24:19;;;;;;;2.53;0.20;;;21.90;74.30;;;;;;5095876;28;20435;-76
2022/06/20 10:27:06;;;;;;;2.65;0.32;;;22.30;76.60;;;;;;4996866;28;20104;-75
2022/06/20 10:30:05;;;;;;;2.17;0.10;;;22.90;70.80;;;;;;5090152;28;20122;-75
2022/06/20 10:32:31;;;;;;;2.85;0.32;;;23.00;71.90;;;;;;5095429;28;20024;-75
2022/06/20 10:35:17;;;;;;;4.65;0.20;;;22.70;70.90;;;;;;5095114;28;20418;-76
2022/06/20 10:37:42;;;;;;;3.03;0.25;;;22.30;71.20;;;;;;5095174;28;20365;-75
2022/06/20 10:40:17;;;;;;;1.35;0.00;;;22.40;71.00;;;;;;5076910;28;20020;-75
2022/06/20 10:43:08;;;;;;;1.23;0.20;;;22.70;70.60;;;;;;5094550;28;20074;-74
2022/06/20 10:45:33;;;;;;;2.17;0.10;;;22.70;70.50;;;;;;5083501;28;20051;-74
2022/06/20 10:48:14;;;;;;;2.67;0.00;;;22.70;69.30;;;;;;5094351;28;20501;-75
2022/06/20 10:50:48;;;;;;;5.68;0.10;;;22.30;69.00;;;;;;5094380;28;20036;-75
2022/06/20 10:53:54;;;;;;;3.92;0.43;;;22.10;72.90;;;;;;5076265;28;20060;-75
2022/06/20 10:56:37;;;;;;;0.35;0.00;;;22.30;74.70;;;;;;5094975;28;20032;-75
2022/06/20 10:59:32;;;;;;;6.40;1.00;;;22.00;72.00;;;;;;5094669;28;20031;-75
2022/06/20 11:02:37;;;;;;;1.50;0.10;;;21.70;72.20;;;;;;5095208;28;20043;-75
2022/06/20 11:05:32;;;;;;;;;;;;;;;;;;;;;
2022/06/20 11:08:29;;;;;;;3.67;0.20;;;21.80;75.70;;;;;;5095671;28;20392;-73
2022/06/20 11:11:01;;;;;;;2.50;0.10;;;22.00;72.30;;;;;;5094297;28;20077;-74
2022/06/20 11:13:44;;;;;;;0.77;0.08;;;22.20;70.70;;;;;;5094628;28;20020;-73
2022/06/20 11:16:15;;;;;;;4.97;0.00;;;22.00;67.60;;;;;;5076554;28;20039;-75
2022/06/20 11:19:02;;;;;;;3.95;0.10;;;21.90;69.80;;;;;;5094273;28;20362;-74
2022/06/20 11:21:40;;;;;;;2.15;0.00;;;21.70;71.40;;;;;;5075940;28;20031;-74
2022/06/20 11:24:37;;;;;;;1.58;0.17;;;21.70;70.30;;;;;;5094455;28;20024;-74
2022/06/20 11:27:30;;;;;;;2.65;0.00;;;22.10;71.90;;;;;;5076073;28;20024;-74
2022/06/20 11:30:19;;;;;;;0.77;0.00;;;22.30;68.40;;;;;;5094383;28;20040;-75
2022/06/20 11:33:07;;;;;;;1.10;0.13;;;23.00;66.90;;;;;;5076298;28;20020;-75
2022/06/20 11:35:32;;;;;;;2.58;0.22;;;23.10;67.70;;;;;;5076496;28;20425;-75
2022/06/20 11:38:16;;;;;;;1.27;0.03;;;23.10;64.20;;;;;;5094353;28;20028;-75
2022/06/20 11:40:57;;;;;;;3.50;0.35;;;22.70;65.00;;;;;;5094545;28;20028;-74
2022/06/20 11:43:52;;;;;;;2.97;0.00;;;22.50;68.90;;;;;;5094399;28;20020;-76
2022/06/20 11:46:26;;;;;;;3.00;0.10;;;22.40;73.20;;;;;;5095207;28;20469;-75
2022/06/20 11:49:29;;;;;;;1.48;0.28;;;22.40;68.40;;;;;;5076176;28;20358;-75
2022/06/20 11:52:19;;;;;;;1.38;0.08;;;22.30;70.20;;;;;;5094894;28;20020;-75
2022/06/20 11:55:04;;;;;;;2.83;0.10;;;22.20;72.30;;;;;;5076109;28;20032;-75
2022/06/20 11:57:42;;;;;;;1.85;0.00;;;22.00;71.10;;;;;;5094734;28;20517;-75
2022/06/20 12:00:23;;;;;;;3.90;0.20;;;22.40;71.00;;;;;;5093897;28;20040;-74
2022/06/20 12:03:02;;;;;;;1.55;0.00;;;22.80;71.90;;;;;;5094216;28;20488;-75
2022/06/20 12:05:38;;;;;;;2.72;0.05;;;22.80;71.00;;;;;;5095729;28;20099;-75
2022/06/20 12:08:28;;;;;;;2.17;0.10;;;22.70;67.00;;;;;;5098042;28;20021;-76
2022/06/20 12:10:56;;;;;;;3.50;0.20;;;22.30;70.30;;;;;;5098571;28;20028;-75
2022/06/20 12:13:52;;;;;;;5.07;0.10;;;22.20;71.10;;;;;;5079317;28;20066;-75
2022/06/20 12:16:31;;;;;;;3.08;0.10;;;22.10;73.40;;;;;;5097779;28;20035;-74
2022/06/20 12:24:59;;;;;;;2.42;0.00;;;22.00;76.10;;;;;;5098725;28;20113;-74
2022/06/20 12:27:27;;;;;;;1.45;0.10;;;22.20;73.40;;;;;;5097362;28;20046;-74
2022/06/20 12:29:52;;;;;;;7.72;0.40;;;22.20;70.80;;;;;;5079159;28;20034;-74
2022/06/20 12:32:23;;;;;;;14.95;1.25;;;22.20;71.50;;;;;;5097281;28;20117;-74
2022/06/20 12:35:17;;;;;;;5.03;0.20;;;22.10;72.20;;;;;;5097380;28;20024;-74
2022/06/20 12:37:53;;;;;;;6.43;0.55;;;22.30;75.00;;;;;;5097337;28;20210;-75
2022/06/20 12:40:40;;;;;;;2.60;0.38;;;22.50;69.90;;;;;;5079790;28;20028;-75
2022/06/20 12:43:14;;;;;;;3.55;0.13;;;22.50;69.90;;;;;;5097979;28;20016;-75
2022/06/20 12:46:09;;;;;;;2.25;0.05;;;22.50;69.80;;;;;;5097242;28;20062;-75
2022/06/20 12:48:48;;;;;;;4.47;0.55;;;22.40;71.40;;;;;;5097045;28;20465;-75
2022/06/20 12:51:16;;;;;;;;;;;22.50;73.10;;;;;;5079495;28;20523;-76
2022/06/20 12:54:04;;;;;;;2.03;0.43;;;22.40;69.10;;;;;;5097086;28;19911;-75
2022/06/20 12:56:51;;;;;;;5.60;0.00;;;22.30;70.40;;;;;;5078766;28;20031;-75
2022/06/20 12:59:32;;;;;;;4.25;0.40;;;22.10;71.80;;;;;;5078880;28;20032;-76
2022/06/20 13:02:04;;;;;;;;;;;22.00;73.60;;;;;;5097760;28;20032;-75
2022/06/20 13:04:58;;;;;;;1.58;0.20;;;21.80;74.00;;;;;;5078179;28;19999;-75
2022/06/20 13:07:27;;;;;;;5.72;0.50;;;21.70;76.10;;;;;;5049296;28;20146;-74
2022/06/20 13:10:27;;;;;;;2.65;0.00;;;21.60;73.10;;;;;;5096514;28;20032;-75
2022/06/20 13:13:07;;;;;;;7.60;0.30;;;21.70;76.00;;;;;;5096446;28;20032;-74
2022/06/20 13:15:58;;;;;;;5.55;0.08;;;22.30;75.40;;;;;;5096235;28;20419;-74
2022/06/20 13:18:40;;;;;;;7.20;0.22;;;22.70;75.00;;;;;;5096069;28;20115;-75
2022/06/20 13:21:14;;;;;;;3.20;0.10;;;22.70;73.10;;;;;;5096456;28;20534;-75
2022/06/20 13:23:40;;;;;;;5.15;0.10;;;22.60;73.30;;;;;;5096535;28;20035;-74
2022/06/20 13:26:08;;;;;;;4.35;0.47;;;22.40;72.60;;;;;;5096332;28;20027;-74
2022/06/20 13:28:52;;;;;;;2.78;0.20;;;22.20;73.30;;;;;;5095886;28;20020;-75
2022/06/20 13:31:35;;;;;;;1.88;0.00;;;22.00;69.90;;;;;;5078014;28;20027;-74
2022/06/20 13:34:06;;;;;;;1.90;0.00;;;21.70;70.40;;;;;;5096337;28;20469;-74
2022/06/20 13:36:44;;;;;;;4.22;0.08;;;21.70;71.10;;;;;;5096102;28;20479;-74
2022/06/20 13:39:22;;;;;;;1.60;0.10;;;21.70;74.50;;;;;;5096247;28;20031;-74
2022/06/20 13:42:08;;;;;;;2.92;0.00;;;21.60;74.20;;;;;;5096275;28;20024;-74
2022/06/20 13:44:56;;;;;;;1.10;0.10;;;21.40;72.20;;;;;;5077581;28;20473;-74
2022/06/20 13:47:35;;;;;;;1.10;0.10;;;21.50;72.90;;;;;;5077362;28;20055;-74
2022/06/20 13:50:10;;;;;;;2.28;0.00;;;21.50;70.50;;;;;;5096122;28;20162;-74
2022/06/20 13:53:05;;;;;;;1.30;0.00;;;21.50;71.20;;;;;;5095619;28;20118;-74